Time;durP1;ratioP1;P1;durP2;ratioP2;P2;SDS_P1;SDS_P2;PMS_P1;PMS_P2;Temp;Humidity;BMP_temperature;BMP_pressure;BME280_temperature;BME280_humidity;BME280_pressure;Samples;Min_cycle;Max_cycle;Signal;HPM_P1;HPM_P2
2022/05/10 00:01:31;;;;;;;1.45;0.53;;;;;;;9.48;36.03;101231.64;1703021;83;21019;-79
2022/05/10 00:04:00;;;;;;;0.87;0.47;;;;;;;9.40;36.05;101232.91;1697993;83;21066;-79
2022/05/10 00:06:31;;;;;;;1.03;0.70;;;;;;;9.34;36.99;101230.39;1696688;83;22124;-79
2022/05/10 00:08:58;;;;;;;1.63;0.60;;;;;;;9.25;37.58;101229.53;1701543;83;21550;-79
2022/05/10 00:11:25;;;;;;;2.70;0.37;;;;;;;9.14;37.79;101227.13;1698508;83;21564;-78
2022/05/10 00:13:52;;;;;;;;;;;;;;;9.06;38.08;101226.59;1704986;83;21582;-76
2022/05/10 00:16:18;;;;;;;2.00;0.47;;;;;;;9.00;38.17;101229.86;1700411;83;20166;-77
2022/05/10 00:18:46;;;;;;;;;;;;;;;8.90;38.60;101225.14;1687830;83;21049;-79
2022/05/10 00:21:17;;;;;;;1.90;0.70;;;;;;;8.84;38.95;101223.11;1696471;83;20618;-76
2022/05/10 00:23:45;;;;;;;2.77;0.30;;;;;;;8.70;39.33;101224.02;1701547;83;21073;-80
2022/05/10 00:26:11;;;;;;;0.80;0.57;;;;;;;8.62;39.57;101225.26;1662709;85;21115;-77
2022/05/10 00:28:37;;;;;;;3.75;0.55;;;;;;;8.54;39.81;101224.70;1676765;85;21154;-79
2022/05/10 00:31:08;;;;;;;0.60;0.47;;;;;;;8.46;40.01;101229.13;1680826;84;21544;-78
2022/05/10 00:33:35;;;;;;;2.50;0.53;;;;;;;8.38;40.25;101224.05;1685481;84;20992;-78
2022/05/10 00:36:01;;;;;;;1.00;0.42;;;;;;;8.30;40.53;101222.63;1652388;84;21020;-75
2022/05/10 00:38:33;;;;;;;;;;;;;;;8.22;40.83;101225.21;1681393;84;21025;-80
2022/05/10 00:41:30;;;;;;;3.93;0.53;;;;;;;8.14;41.11;101223.81;1675220;84;20174;-79
2022/05/10 00:44:08;;;;;;;5.28;0.68;;;;;;;8.01;41.55;101224.17;1671628;84;21065;-80
2022/05/10 00:46:41;;;;;;;;;;;;;;;7.88;42.07;101219.72;1670913;84;21615;-78
2022/05/10 00:49:41;;;;;;;1.67;0.57;;;;;;;7.77;42.26;101218.09;1702272;83;20093;-78
2022/05/10 00:52:18;;;;;;;1.97;0.47;;;;;;;7.65;42.56;101221.92;1697685;83;21064;-79
2022/05/10 00:55:01;;;;;;;;;;;;;;;7.56;42.76;101224.48;1622800;84;21060;-80
2022/05/10 00:57:42;;;;;;;1.87;0.83;;;;;;;7.52;43.03;101225.77;1681731;83;20103;-79
2022/05/10 01:00:28;;;;;;;2.70;0.73;;;;;;;7.41;43.63;101221.97;1666272;84;21115;-80
2022/05/10 01:03:08;;;;;;;0.80;0.40;;;;;;;7.35;43.94;101221.23;1672227;84;22273;-74
2022/05/10 01:06:07;;;;;;;1.07;0.43;;;;;;;7.29;44.00;101227.09;1655676;84;21369;-70
2022/05/10 01:09:11;;;;;;;4.93;0.40;;;;;;;7.25;44.40;101227.05;1664721;84;22201;-75
2022/05/10 01:11:46;;;;;;;0.67;0.33;;;;;;;7.18;44.80;101232.94;1641852;85;21097;-74
2022/05/10 01:14:25;;;;;;;1.33;0.70;;;;;;;7.09;45.13;101231.64;1695681;83;21118;-80
2022/05/10 01:16:51;;;;;;;1.80;0.60;;;;;;;7.01;45.64;101233.19;1699609;83;21111;-79
2022/05/10 01:19:18;;;;;;;3.37;0.70;;;;;;;6.94;45.66;101236.06;1673986;83;21133;-78
2022/05/10 01:22:30;;;;;;;0.50;0.50;;;;;;;6.92;46.54;101232.72;1675364;83;21051;-81
2022/05/10 01:25:25;;;;;;;0.97;0.40;;;;;;;6.89;46.58;101233.49;1624072;87;22382;-74
2022/05/10 01:28:21;;;;;;;1.37;0.60;;;;;;;6.86;47.32;101231.14;1691803;83;21047;-79
2022/05/10 01:30:48;;;;;;;1.03;0.50;;;;;;;6.82;47.52;101231.91;1657033;85;21119;-78
2022/05/10 01:33:32;;;;;;;2.30;0.67;;;;;;;6.81;47.35;101229.73;1645098;86;21191;-80
2022/05/10 01:36:13;;;;;;;2.40;0.30;;;;;;;6.83;47.76;101225.12;1667260;85;21035;-73
2022/05/10 01:38:56;;;;;;;5.40;0.63;;;;;;;6.46;47.65;101166.78;1627057;86;22163;-80
2022/05/10 01:41:50;;;;;;;0.50;0.40;;;;;;;6.86;47.65;101223.20;1639365;86;21649;-79
2022/05/10 01:44:42;;;;;;;1.53;0.47;;;;;;;6.88;47.88;101230.52;1697731;83;21009;-78
2022/05/10 01:47:35;;;;;;;1.43;0.50;;;;;;;6.84;47.91;101223.33;1687472;83;21147;-76
2022/05/10 01:50:13;;;;;;;1.00;0.30;;;;;;;6.81;47.84;101225.75;1624279;87;21087;-73
2022/05/10 01:52:50;;;;;;;0.80;0.73;;;;;;;6.83;48.16;101226.45;1679478;83;21075;-75
2022/05/10 01:55:36;;;;;;;0.77;0.47;;;;;;;6.84;48.06;101219.36;1654489;84;21071;-79
2022/05/10 01:58:14;;;;;;;0.70;0.40;;;;;;;6.85;48.10;101218.36;1714170;82;21072;-77
2022/05/10 02:00:46;;;;;;;0.50;0.30;;;;;;;6.88;48.45;101218.58;1662731;84;21053;-81
2022/05/10 02:03:36;;;;;;;0.50;0.23;;;;;;;6.88;48.60;101218.58;1650926;86;21904;-79
2022/05/10 02:06:34;;;;;;;1.60;0.40;;;;;;;6.86;48.75;101220.55;1629997;86;21539;-77
2022/05/10 02:09:15;;;;;;;0.40;0.33;;;;;;;6.87;48.44;101220.37;1709757;82;21028;-78
2022/05/10 02:11:55;;;;;;;0.97;0.20;;;;;;;6.90;48.81;101216.63;1660588;84;21556;-78
2022/05/10 02:14:32;;;;;;;1.27;0.57;;;;;;;6.91;49.03;101219.60;1628797;86;21070;-78
2022/05/10 02:17:26;;;;;;;1.65;0.60;;;;;;;6.90;49.13;101216.63;1667615;84;21084;-70
2022/05/10 02:20:11;;;;;;;1.40;0.37;;;;;;;6.87;49.24;101220.88;1704821;82;21177;-78
2022/05/10 02:23:14;;;;;;;0.63;0.30;;;;;;;6.82;49.54;101219.48;1702934;82;21223;-77
2022/05/10 02:25:45;;;;;;;0.73;0.33;;;;;;;6.79;49.89;101217.11;1641257;86;21026;-80
2022/05/10 02:28:42;;;;;;;0.83;0.50;;;;;;;6.77;50.35;101220.40;1686458;82;21025;-79
2022/05/10 02:31:26;;;;;;;1.23;0.30;;;;;;;6.69;50.44;101214.16;1705482;82;21496;-75
2022/05/10 02:33:55;;;;;;;1.13;0.60;;;;;;;6.68;50.67;101221.24;1667868;84;21190;-79
2022/05/10 02:36:21;;;;;;;0.60;0.30;;;;;;;6.65;51.06;101225.52;1701756;82;21079;-77
2022/05/10 02:38:49;;;;;;;1.30;0.60;;;;;;;6.64;51.39;101233.11;1667376;84;21030;-80
2022/05/10 02:41:22;;;;;;;2.90;0.77;;;;;;;6.65;51.55;101225.52;1639192;85;21022;-79
2022/05/10 02:44:00;;;;;;;1.80;0.93;;;;;;;6.66;51.96;101229.00;1708210;82;21040;-79
2022/05/10 02:46:28;;;;;;;1.93;0.40;;;;;;;6.68;52.06;101223.06;1654656;84;21024;-80
2022/05/10 02:48:55;;;;;;;3.13;0.57;;;;;;;6.71;52.44;101228.09;1660045;84;21121;-81
2022/05/10 02:51:21;;;;;;;0.62;0.57;;;;;;;6.76;52.66;101228.02;1666860;84;21042;-79
2022/05/10 02:53:48;;;;;;;2.20;0.60;;;;;;;6.87;52.85;101224.84;1695934;82;21024;-79
2022/05/10 02:56:20;;;;;;;1.57;0.33;;;;;;;7.20;53.37;101216.39;1716979;82;21065;-79
2022/05/10 02:59:04;;;;;;;1.33;0.70;;;;;;;7.77;52.90;101213.62;1704097;82;21066;-80
2022/05/10 03:01:48;;;;;;;4.80;0.43;;;;;;;8.47;51.67;101217.00;1698266;82;21111;-75
2022/05/10 03:04:14;;;;;;;1.97;0.30;;;;;;;9.24;50.20;101217.70;1701978;82;21576;-81
2022/05/10 03:06:46;;;;;;;1.20;0.40;;;;;;;9.99;48.39;101225.00;1662562;84;21025;-76
2022/05/10 03:09:14;;;;;;;3.47;0.70;;;;;;;10.65;46.64;101224.61;1656550;84;21020;-81
2022/05/10 03:11:43;;;;;;;2.90;0.50;;;;;;;11.30;44.84;101216.98;1712317;82;21035;-81
2022/05/10 03:14:13;;;;;;;4.23;0.77;;;;;;;11.83;42.58;101218.62;1684895;82;21072;-82
2022/05/10 03:16:39;;;;;;;4.03;2.10;;;;;;;12.27;42.03;101222.88;1683983;84;20972;-81
2022/05/10 03:19:05;;;;;;;10.82;4.80;;;;;;;12.77;40.96;101216.65;1656969;84;21409;-76
2022/05/10 03:21:39;;;;;;;8.10;4.80;;;;;;;13.31;38.76;101217.47;1654030;84;21591;-74
2022/05/10 03:24:07;;;;;;;8.53;5.05;;;;;;;13.60;37.65;101220.65;1659937;85;21024;-82
2022/05/10 03:26:34;;;;;;;7.47;4.75;;;;;;;13.69;36.34;101219.50;1663792;85;21042;-83
2022/05/10 03:29:01;;;;;;;8.53;4.20;;;;;;;13.57;36.09;101227.70;1647836;84;22127;-81
2022/05/10 03:31:29;;;;;;;7.00;3.80;;;;;;;13.36;35.54;101225.27;1706084;82;21075;-77
2022/05/10 03:36:44;;;;;;;4.67;2.67;;;;;;;13.39;35.43;101231.60;1696144;82;21093;-82
2022/05/10 03:39:10;;;;;;;7.40;4.00;;;;;;;13.54;35.46;101226.73;1713390;82;21045;-83
2022/05/10 03:41:37;;;;;;;6.47;2.67;;;;;;;13.71;34.88;101220.66;1697447;82;21037;-82
2022/05/10 03:44:04;;;;;;;5.28;2.17;;;;;;;13.94;33.91;101233.94;1717111;82;21001;-81
2022/05/10 03:46:31;;;;;;;3.17;1.95;;;;;;;14.17;32.85;101234.59;1710472;82;21060;-83
2022/05/10 03:48:57;;;;;;;4.22;1.47;;;;;;;14.37;33.04;101229.93;1683785;84;21148;-82
2022/05/10 03:51:23;;;;;;;2.15;1.75;;;;;;;14.67;33.10;101233.86;1679979;84;21070;-80
2022/05/10 03:53:50;;;;;;;2.27;1.40;;;;;;;15.05;32.50;101232.17;1635060;86;21010;-84
2022/05/10 03:56:16;;;;;;;;;;;;;;;15.47;31.91;101215.61;1635470;85;21042;-84
2022/05/10 03:58:42;;;;;;;4.78;2.25;;;;;;;15.80;31.76;101210.91;1632725;86;20162;-82
2022/05/10 04:01:09;;;;;;;4.08;2.75;;;;;;;16.08;31.96;101212.95;1659964;84;20998;-83
2022/05/10 04:03:36;;;;;;;10.70;4.42;;;;;;;16.53;31.70;101217.26;1703075;82;21488;-84
2022/05/10 04:06:03;;;;;;;5.78;2.98;;;;;;;16.85;31.46;101216.67;1678373;84;21101;-85
2022/05/10 04:08:30;;;;;;;7.80;3.20;;;;;;;16.99;31.17;101218.83;1639064;85;21538;-85
2022/05/10 04:11:07;;;;;;;7.95;4.67;;;;;;;16.91;31.31;101223.91;1707742;82;21018;-86
2022/05/10 04:13:36;;;;;;;9.80;6.73;;;;;;;16.85;31.68;101230.95;1667910;84;22123;-83
2022/05/10 04:16:02;;;;;;;11.65;6.85;;;;;;;16.98;32.20;101225.27;1677177;84;21489;-85
2022/05/10 04:18:29;;;;;;;17.48;8.03;;;;;;;17.29;31.86;101224.07;1658078;84;21545;-77
2022/05/10 04:20:57;;;;;;;16.75;9.03;;;;;;;17.35;31.85;101220.20;1699881;82;21040;-85
2022/05/10 04:23:24;;;;;;;28.83;13.95;;;;;;;17.43;32.21;101224.03;1666782;84;21518;-84
2022/05/10 04:25:51;;;;;;;25.32;12.68;;;;;;;17.58;32.42;101221.08;1658593;85;21099;-86
2022/05/10 04:28:18;;;;;;;27.73;16.50;;;;;;;17.76;32.44;101219.02;1658256;85;21018;-83
2022/05/10 04:30:45;;;;;;;35.80;21.12;;;;;;;18.04;32.39;101215.47;1670097;84;21097;-82
2022/05/10 04:33:11;;;;;;;39.25;22.27;;;;;;;18.18;32.82;101222.17;1706525;82;21047;-83
2022/05/10 04:35:37;;;;;;;38.15;20.72;;;;;;;18.32;32.99;101216.97;1702784;82;21010;-84
2022/05/10 04:38:04;;;;;;;;;;;;;;;18.41;33.13;101215.66;1670092;84;21073;-80
2022/05/10 04:43:18;;;;;;;;;;;;;;;18.41;33.15;101221.59;1669524;84;20435;-82
2022/05/10 04:45:45;;;;;;;;;;;;;;;18.35;33.71;101219.23;1642036;86;20137;-80
2022/05/10 04:48:11;;;;;;;;;;;;;;;18.65;33.66;101219.95;1705079;82;20460;-80
2022/05/10 04:50:37;;;;;;;;;;;;;;;19.01;32.79;101219.77;1702184;81;20099;-68
2022/05/10 04:53:03;;;;;;;;;;;;;;;19.05;32.58;101218.27;1734670;80;20222;-79
2022/05/10 04:55:30;;;;;;;;;;;;;;;18.90;32.97;101212.39;1700101;82;20195;-70
2022/05/10 04:57:56;;;;;;;;;;;;;;;18.68;33.37;101212.25;1713270;82;20572;-82
2022/05/10 05:00:24;;;;;;;;;;;;;;;18.54;33.69;101212.04;1671069;84;20138;-80
2022/05/10 05:02:50;;;;;;;;;;;;;;;18.43;34.18;101209.52;1641323;86;20166;-82
2022/05/10 05:05:17;;;;;;;;;;;;;;;18.48;34.06;101210.23;1711861;82;20180;-82
2022/05/10 05:07:43;;;;;;;;;;;;;;;18.64;33.51;101215.05;1711338;82;20458;-84
2022/05/10 05:10:10;;;;;;;;;;;;;;;18.55;33.60;101216.91;1707873;82;20149;-84
2022/05/10 05:12:37;;;;;;;;;;;;;;;18.49;33.60;101212.68;1698521;82;20194;-77
2022/05/10 05:15:06;;;;;;;;;;;;;;;18.31;33.97;101211.78;1707310;82;20160;-83
2022/05/10 05:17:32;;;;;;;;;;;;;;;18.04;33.39;101208.73;1708787;82;20145;-82
2022/05/10 05:19:58;;;;;;;;;;;;;;;17.84;33.44;101210.20;1708145;82;20183;-76
2022/05/10 05:22:26;;;;;;;;;;;;;;;17.73;32.93;101214.08;1711650;82;20132;-83
2022/05/10 05:24:53;;;;;;;;;;;;;;;17.53;33.27;101221.70;1712182;82;20218;-79
2022/05/10 05:27:19;;;;;;;;;;;;;;;17.22;33.73;101220.56;1720233;82;20133;-78
2022/05/10 05:29:46;;;;;;;;;;;;;;;17.01;33.83;101219.44;1721419;82;20143;-83
2022/05/10 05:32:15;;;;;;;;;;;;;;;17.03;33.11;101212.01;1712078;82;20161;-81
2022/05/10 05:37:34;;;;;;;11.10;7.37;;;;;;;16.91;31.47;101203.72;1774961;78;22306;-79
2022/05/10 05:40:11;;;;;;;13.32;7.35;;;;;;;16.93;31.72;101203.84;1753394;80;21763;-73
2022/05/10 05:42:38;;;;;;;16.60;9.45;;;;;;;17.28;31.78;101195.45;1755468;80;21013;-79
2022/05/10 05:45:07;;;;;;;14.87;9.13;;;;;;;17.61;30.91;101201.27;1730587;80;21032;-82
2022/05/10 05:47:35;;;;;;;19.87;10.75;;;;;;;17.64;31.78;101199.47;1707549;83;21028;-82
2022/05/10 05:50:06;;;;;;;19.05;10.58;;;;;;;17.64;31.78;101199.47;1711289;83;21694;-73
2022/05/10 05:52:34;;;;;;;26.30;11.85;;;;;;;17.45;30.71;101146.48;1713423;83;21013;-82
2022/05/10 05:55:00;;;;;;;17.55;10.32;;;;;;;17.74;31.11;101190.09;1703881;83;21196;-83
2022/05/10 05:57:27;;;;;;;21.17;9.93;;;;;;;17.80;30.68;101187.88;1726404;82;20985;-83
2022/05/10 05:59:55;;;;;;;20.77;13.68;;;;;;;17.83;30.68;101191.51;1698776;83;21647;-86
2022/05/10 06:02:23;;;;;;;19.42;12.47;;;;;;;17.98;31.34;101193.42;1683284;83;21085;-81
2022/05/10 06:04:50;;;;;;;26.93;16.30;;;;;;;17.98;31.34;101193.42;1679768;83;21066;-73
2022/05/10 06:07:18;;;;;;;19.45;12.40;;;;;;;17.72;31.82;101188.95;1683652;83;21525;-87
2022/05/10 06:09:47;;;;;;;18.00;10.23;;;;;;;17.51;32.00;101194.95;1685671;83;21616;-83
2022/05/10 06:12:18;;;;;;;19.02;12.47;;;;;;;17.85;31.21;101194.84;1698300;82;20966;-79
2022/05/10 06:14:45;;;;;;;20.68;11.25;;;;;;;18.25;31.13;101189.19;1704729;83;21051;-90
2022/05/10 06:17:13;;;;;;;9.65;6.05;;;;;;;18.25;31.13;101189.19;1709581;83;21307;-79
2022/05/10 06:19:41;;;;;;;13.40;8.13;;;;;;;18.48;29.70;101189.98;1710922;83;21046;-71
2022/05/10 06:22:11;;;;;;;11.68;7.22;;;;;;;18.40;30.17;101189.73;1709057;81;20985;-80
2022/05/10 06:24:38;;;;;;;7.35;3.62;;;;;;;18.25;30.65;101175.70;1709929;83;20992;-70
2022/05/10 06:27:10;;;;;;;5.62;2.92;;;;;;;18.13;29.60;101178.81;1702314;81;86010;-89
2022/05/10 06:29:38;;;;;;;3.08;1.95;;;;;;;18.09;30.05;101179.77;1629325;86;21153;-88
2022/05/10 06:32:11;;;;;;;5.37;1.62;;;;;;;18.31;28.83;101176.70;1659740;85;21044;-90
2022/05/10 06:34:40;;;;;;;1.62;0.82;;;;;;;18.44;28.37;101172.55;1663019;85;21098;-90
2022/05/10 06:38:16;;;;;;;4.55;0.70;;;;;;;18.66;27.19;101179.73;1661749;85;21075;-88
2022/05/10 06:39:34;;;;;;;2.05;0.33;;;;;;;18.92;24.94;101179.23;1659731;85;21036;-90
2022/05/10 06:42:04;;;;;;;3.05;0.62;;;;;;;18.79;24.32;101172.05;1665724;85;21096;-88
2022/05/10 06:44:32;;;;;;;1.55;0.30;;;;;;;18.51;24.27;101177.91;1631155;85;21296;-88
2022/05/10 06:46:59;;;;;;;1.50;0.40;;;;;;;18.25;24.79;101173.85;1641511;86;21050;-89
2022/05/10 06:49:29;;;;;;;0.42;0.20;;;;;;;17.98;25.00;101175.89;1617272;86;21534;-88
2022/05/10 06:51:54;;;;;;;0.30;0.20;;;;;;;17.94;24.78;101173.85;1639582;86;21634;-89
2022/05/10 06:54:27;;;;;;;1.02;0.30;;;;;;;18.00;24.37;101167.58;1650708;86;21038;-87
2022/05/10 06:56:55;;;;;;;1.35;0.10;;;;;;;18.00;24.10;101168.93;1663554;83;21299;-88
2022/05/10 06:59:53;;;;;;;0.20;0.10;;;;;;;17.87;24.13;101167.14;1639610;84;21018;-88
2022/05/10 07:02:19;;;;;;;0.20;0.10;;;;;;;18.02;23.98;101163.61;1643448;85;21571;-88
2022/05/10 07:04:51;;;;;;;0.78;0.10;;;;;;;18.16;22.41;101174.31;1636315;86;21111;-89
2022/05/10 07:07:24;;;;;;;0.68;0.03;;;;;;;17.98;22.45;101162.40;1647086;86;21119;-89
2022/05/10 07:10:04;;;;;;;3.27;0.10;;;;;;;17.95;21.77;101160.16;1658540;86;21221;-89
2022/05/10 07:12:38;;;;;;;1.75;0.17;;;;;;;17.44;22.81;101155.59;1617390;86;21063;-88
2022/05/10 07:15:13;;;;;;;1.98;0.10;;;;;;;17.44;22.81;101155.59;1626180;87;21226;-87
2022/05/10 07:17:43;;;;;;;0.50;0.10;;;;;;;17.22;22.21;101151.86;1610847;87;21116;-89
2022/05/10 07:20:14;;;;;;;0.65;0.30;;;;;;;17.07;22.56;101152.11;1611603;87;21041;-89
2022/05/10 07:22:43;;;;;;;1.15;0.25;;;;;;;16.90;23.31;101148.22;1622895;86;21046;-89
2022/05/10 07:25:18;;;;;;;0.72;0.10;;;;;;;16.84;23.44;101147.20;1615903;86;21129;-88
2022/05/10 07:27:45;;;;;;;0.37;0.10;;;;;;;16.76;23.50;101134.44;1635675;86;21097;-90
2022/05/10 07:30:15;;;;;;;3.40;0.20;;;;;;;16.64;23.77;101139.11;1650807;85;21109;-89
2022/05/10 07:32:46;;;;;;;0.60;0.30;;;;;;;16.67;23.02;101143.23;1613618;86;20994;-90
2022/05/10 07:36:23;;;;;;;0.62;0.10;;;;;;;16.69;23.41;101137.97;1606479;86;21101;-91
2022/05/10 07:37:57;;;;;;;1.03;0.10;;;;;;;16.72;23.25;101140.23;1603400;88;21088;-88
2022/05/10 07:40:25;;;;;;;2.90;0.10;;;;;;;16.66;23.06;101120.88;1598402;88;21072;-90
2022/05/10 07:42:57;;;;;;;0.57;0.10;;;;;;;16.61;23.33;101137.34;1603143;88;21113;-91
2022/05/10 07:45:32;;;;;;;2.67;0.20;;;;;;;16.42;23.64;101133.11;1614307;84;21206;-90
2022/05/10 07:48:12;;;;;;;0.45;0.10;;;;;;;16.23;24.23;101127.22;1601585;84;21153;-91
2022/05/10 07:50:51;;;;;;;0.68;0.10;;;;;;;16.19;23.55;101120.61;1604795;88;21060;-90
2022/05/10 07:53:18;;;;;;;0.62;0.30;;;;;;;16.12;23.33;101125.48;1606466;88;21098;-88
2022/05/10 07:55:45;;;;;;;0.90;0.10;;;;;;;16.00;23.89;101121.72;1588823;88;21092;-89
2022/05/10 07:58:12;;;;;;;0.42;0.30;;;;;;;16.01;24.23;101107.27;1591351;87;21120;-89
2022/05/10 08:00:43;;;;;;;3.45;0.10;;;;;;;16.14;23.86;101111.30;1578157;87;21136;-89
2022/05/10 08:03:16;;;;;;;0.40;0.10;;;;;;;16.26;23.75;101105.30;1623641;87;21037;-88
2022/05/10 08:05:46;;;;;;;0.42;0.10;;;;;;;16.26;23.10;101111.50;1618217;86;21063;-89
2022/05/10 08:08:20;;;;;;;0.30;0.10;;;;;;;16.21;23.52;101110.47;1603398;87;21200;-88
2022/05/10 08:10:53;;;;;;;1.65;0.10;;;;;;;16.19;23.12;101112.02;1621144;87;21087;-90
2022/05/10 08:13:27;;;;;;;1.27;0.10;;;;;;;16.11;23.22;101100.94;1561659;89;21743;-91
2022/05/10 08:16:02;;;;;;;0.37;0.10;;;;;;;15.93;23.30;101099.38;1590938;88;21449;-90
2022/05/10 08:18:35;;;;;;;4.08;0.10;;;;;;;15.90;23.18;101101.14;1599063;88;21106;-89
2022/05/10 08:21:08;;;;;;;0.40;0.00;;;;;;;15.87;23.21;101109.61;1594186;88;21137;-88
2022/05/10 08:23:39;;;;;;;3.72;0.10;;;;;;;15.80;23.40;101102.05;1602998;87;21049;-89
2022/05/10 08:26:10;;;;;;;0.75;0.10;;;;;;;15.73;23.48;101085.89;1583955;89;21074;-88
2022/05/10 08:28:39;;;;;;;0.30;0.10;;;;;;;15.60;23.33;101098.78;1587288;89;21614;-90
2022/05/10 08:31:08;;;;;;;0.53;0.15;;;;;;;15.50;23.85;101097.83;1564930;89;21034;-90
2022/05/10 08:33:45;;;;;;;1.65;0.20;;;;;;;14.38;24.05;100917.82;1587215;86;21032;-88
2022/05/10 08:36:17;;;;;;;0.78;0.10;;;;;;;15.45;23.95;101092.75;1623482;85;21011;-88
2022/05/10 08:38:46;;;;;;;3.22;0.10;;;;;;;15.38;24.12;101093.53;1623254;86;20999;-90
2022/05/10 08:41:25;;;;;;;0.57;0.10;;;;;;;15.39;24.21;101080.95;1624180;87;21046;-89
2022/05/10 08:44:00;;;;;;;0.13;0.10;;;;;;;15.43;24.49;101088.09;1627474;87;21165;-89
2022/05/10 08:46:46;;;;;;;3.98;0.20;;;;;;;15.34;24.94;101080.72;1625620;87;21463;-93
2022/05/10 08:49:53;;;;;;;1.45;0.10;;;;;;;15.23;24.59;101074.06;1624268;87;21111;-92
2022/05/10 08:52:37;;;;;;;0.10;0.10;;;;;;;15.18;25.10;101059.91;1618136;87;21103;-92
2022/05/10 08:55:11;;;;;;;0.25;0.10;;;;;;;15.23;24.78;101077.27;1645157;86;21546;-90
2022/05/10 08:57:54;;;;;;;0.80;0.30;;;;;;;15.16;24.93;101062.46;1618604;86;21042;-91
2022/05/10 09:00:48;;;;;;;1.00;0.42;;;;;;;15.13;25.36;101074.97;1631842;85;21082;-91
2022/05/10 09:03:40;;;;;;;1.20;0.10;;;;;;;15.07;25.08;101058.29;1594852;88;21069;-91
2022/05/10 09:07:05;;;;;;;0.50;0.17;;;;;;;15.01;25.45;101055.08;1591785;87;21623;-92
2022/05/10 09:09:59;;;;;;;0.20;0.10;;;;;;;15.12;25.80;101055.84;1636395;86;21095;-90
2022/05/10 09:12:39;;;;;;;1.12;0.20;;;;;;;15.21;25.72;101051.95;1622975;85;21634;-93
2022/05/10 09:15:12;;;;;;;2.65;0.88;;;;;;;15.24;26.10;101039.47;1622918;86;21701;-91
2022/05/10 09:17:52;;;;;;;1.77;0.95;;;;;;;15.37;26.21;101046.75;1614011;87;21110;-91
2022/05/10 09:20:24;;;;;;;2.37;0.55;;;;;;;15.49;26.38;101037.05;1626710;86;21016;-90
2022/05/10 09:23:58;;;;;;;0.75;0.20;;;;;;;15.62;26.43;101033.56;1590245;86;21045;-90
2022/05/10 09:26:53;;;;;;;1.87;0.40;;;;;;;15.69;25.94;101035.75;1563488;87;21037;-91
2022/05/10 09:29:49;;;;;;;1.75;0.40;;;;;;;15.71;26.08;101029.65;1613614;87;21394;-92
2022/05/10 09:35:28;;;;;;;1.02;0.40;;;;;;;15.92;25.67;101024.62;1613217;87;21073;-89
2022/05/10 09:38:11;;;;;;;0.33;0.20;;;;;;;15.99;25.51;101020.56;1588370;89;21093;-88
2022/05/10 09:40:50;;;;;;;1.35;0.23;;;;;;;15.95;25.39;101016.64;1616484;86;21222;-91
2022/05/10 09:43:31;;;;;;;0.42;0.40;;;;;;;15.90;25.70;101009.74;1613700;86;21049;-90
2022/05/10 09:46:09;;;;;;;0.55;0.28;;;;;;;15.89;25.47;101005.38;1626637;86;21064;-91
2022/05/10 09:48:48;;;;;;;2.27;0.47;;;;;;;15.89;26.09;101004.05;1630667;86;21117;-91
2022/05/10 09:51:44;;;;;;;2.33;0.40;;;;;;;15.98;25.96;101001.45;1583598;87;21096;-91
2022/05/10 09:54:21;;;;;;;3.52;0.20;;;;;;;15.96;25.64;101007.03;1610529;87;21019;-90
2022/05/10 09:57:02;;;;;;;2.05;0.13;;;;;;;15.79;25.83;100987.52;1603692;85;21129;-91
2022/05/10 09:59:55;;;;;;;0.40;0.20;;;;;;;15.73;25.75;100989.98;1584663;89;21642;-92
2022/05/10 10:02:34;;;;;;;2.70;0.45;;;;;;;15.71;25.90;100987.17;1629914;86;21059;-92
2022/05/10 10:05:28;;;;;;;1.02;0.10;;;;;;;15.64;25.47;100987.68;1650014;85;21086;-92
2022/05/10 10:07:59;;;;;;;1.42;0.20;;;;;;;15.55;25.25;100981.67;1660038;85;21674;-92
2022/05/10 10:10:37;;;;;;;0.75;0.30;;;;;;;15.51;25.62;100987.14;1651105;85;21120;-91
2022/05/10 10:13:33;;;;;;;0.30;0.17;;;;;;;15.54;25.72;100976.82;1641298;85;21021;-90
2022/05/10 10:16:37;;;;;;;2.45;0.20;;;;;;;15.62;25.73;100978.48;1656747;84;21051;-91
2022/05/10 10:19:33;;;;;;;1.27;0.20;;;;;;;15.56;25.70;100969.37;1653936;86;21054;-93
2022/05/10 10:22:12;;;;;;;0.98;0.20;;;;;;;15.53;25.55;100977.84;1663873;85;20991;-89
2022/05/10 10:25:13;;;;;;;1.75;0.50;;;;;;;15.58;25.68;100969.17;1663839;85;21147;-91
2022/05/10 10:27:54;;;;;;;2.05;0.20;;;;;;;15.57;25.79;100958.92;1658336;85;21124;-91
2022/05/10 10:30:40;;;;;;;1.32;0.20;;;;;;;15.63;25.90;100952.42;1684798;80;86964;-85
2022/05/10 10:33:27;;;;;;;2.45;0.17;;;;;;;15.72;25.84;100954.69;1764320;80;21044;-87
2022/05/10 10:35:58;;;;;;;;;;;;;;;15.83;25.65;100958.66;1762493;80;21054;-85
2022/05/10 10:38:54;;;;;;;2.15;0.20;;;;;;;15.74;25.29;100945.93;1766414;80;20181;-87
2022/05/10 10:41:44;;;;;;;1.47;0.20;;;;;;;15.63;25.58;100942.49;1770861;80;20990;-85
2022/05/10 10:44:16;;;;;;;1.95;0.30;;;;;;;15.69;25.62;100940.84;1763776;80;21053;-86
2022/05/10 10:47:08;;;;;;;2.25;0.45;;;;;;;15.75;25.33;100936.84;1768300;80;21056;-88
2022/05/10 10:49:47;;;;;;;0.40;0.20;;;;;;;15.78;25.71;100934.78;1762105;80;21052;-83
2022/05/10 10:52:17;;;;;;;0.72;0.20;;;;;;;15.80;25.88;100938.90;1766275;80;21017;-76
2022/05/10 10:54:45;;;;;;;2.40;0.30;;;;;;;15.78;25.25;100930.75;1764764;80;21654;-88
2022/05/10 10:57:42;;;;;;;0.70;0.10;;;;;;;15.69;25.53;100929.59;1737222;80;22067;-89
2022/05/10 11:00:16;;;;;;;2.05;0.10;;;;;;;15.69;25.57;100926.91;1764504;80;21298;-87
2022/05/10 11:03:08;;;;;;;0.28;0.10;;;;;;;15.66;25.50;100925.97;1767350;80;21021;-75
2022/05/10 11:06:18;;;;;;;1.30;0.23;;;;;;;15.63;26.06;100919.65;1759975;80;21101;-79
2022/05/10 11:09:05;;;;;;;0.40;0.10;;;;;;;15.64;25.78;100911.91;1765405;80;20970;-86
2022/05/10 11:11:48;;;;;;;4.33;0.23;;;;;;;15.69;26.11;100894.66;1762434;80;21068;-84
2022/05/10 11:14:41;;;;;;;1.10;0.30;;;;;;;15.85;25.79;100902.81;1765370;80;21044;-86
2022/05/10 11:17:16;;;;;;;2.05;0.20;;;;;;;15.94;25.57;100898.06;1731306;80;21016;-88
2022/05/10 11:19:51;;;;;;;2.45;0.40;;;;;;;15.96;25.66;100902.70;1764994;80;21069;-80
2022/05/10 11:22:39;;;;;;;1.17;0.10;;;;;;;15.95;25.37;100891.63;1764241;80;21787;-87
2022/05/10 11:25:50;;;;;;;2.25;0.40;;;;;;;15.94;25.68;100890.81;1732174;82;21169;-88
2022/05/10 11:28:46;;;;;;;1.22;0.10;;;;;;;15.91;25.68;100882.34;1689714;85;20989;-89
2022/05/10 11:31:24;;;;;;;0.80;0.25;;;;;;;15.89;25.34;100880.38;1694232;82;21079;-71
2022/05/10 11:34:20;;;;;;;1.57;0.20;;;;;;;15.87;25.50;100881.92;1720845;81;21082;-88
2022/05/10 11:36:50;;;;;;;0.82;0.23;;;;;;;15.92;25.41;100874.59;1722866;82;21693;-89
2022/05/10 11:39:55;;;;;;;1.02;0.13;;;;;;;15.93;25.47;100864.13;1731226;81;20976;-84
2022/05/10 11:43:02;;;;;;;0.80;0.30;;;;;;;15.92;25.46;100868.69;1693469;82;20992;-70
2022/05/10 11:45:58;;;;;;;0.78;0.10;;;;;;;15.79;25.10;100862.53;1673248;81;20947;-77
2022/05/10 11:48:32;;;;;;;0.47;0.10;;;;;;;15.66;25.28;100856.09;1704848;83;21986;-76
2022/05/10 11:54:28;;;;;;;0.78;0.10;;;;;;;15.67;25.96;100836.27;1731736;81;21025;-83
2022/05/10 11:56:56;;;;;;;1.85;0.25;;;;;;;15.80;25.79;100844.01;1734468;81;21091;-88
2022/05/10 11:59:31;;;;;;;0.30;0.10;;;;;;;15.89;25.53;100836.02;1733553;81;20981;-87
2022/05/10 12:01:59;;;;;;;1.85;0.25;;;;;;;15.96;25.34;100832.80;1732432;81;21020;-86
2022/05/10 12:04:46;;;;;;;0.93;0.10;;;;;;;15.97;25.19;100829.06;1723770;81;21036;-84
2022/05/10 12:07:24;;;;;;;2.08;0.20;;;;;;;15.91;25.18;100809.75;1733579;81;20984;-87
2022/05/10 12:10:02;;;;;;;1.75;0.15;;;;;;;16.01;25.14;100820.05;1725530;81;21512;-88
2022/05/10 12:12:44;;;;;;;3.35;0.10;;;;;;;16.04;25.06;100812.92;1724611;81;21199;-90
2022/05/10 12:21:50;;;;;;;0.30;0.10;;;;;;;16.09;24.49;100806.39;1728470;81;21450;-83
2022/05/10 12:24:27;;;;;;;0.75;0.10;;;;;;;16.03;24.41;100797.31;1731589;81;21080;-79
2022/05/10 12:26:57;;;;;;;0.10;0.10;;;;;;;15.94;24.96;100797.25;1738618;81;21043;-85
2022/05/10 12:29:41;;;;;;;0.60;0.10;;;;;;;15.87;25.01;100797.25;1728631;81;21075;-85
2022/05/10 12:32:29;;;;;;;1.17;0.33;;;;;;;15.84;25.05;100791.47;1736300;81;21442;-83
2022/05/10 12:35:04;;;;;;;0.75;0.10;;;;;;;15.84;25.48;100786.95;1733667;81;21667;-85